Time;durP1;ratioP1;P1;durP2;ratioP2;P2;SDS_P1;SDS_P2;PMS_P1;PMS_P2;Temp;Humidity;BMP_temperature;BMP_pressure;BME280_temperature;BME280_humidity;BME280_pressure;Samples;Min_cycle;Max_cycle;Signal;HPM_P1;HPM_P2
2022/11/09 00:01:11;;;;;;;6.57;3.85;;;21.20;99.90;;;;;;4185458;28;20223;-74
2022/11/09 00:03:14;;;;;;;5.65;3.72;;;21.10;99.90;;;;;;4189739;28;20215;-75
2022/11/09 00:05:16;;;;;;;5.97;3.90;;;21.10;99.90;;;;;;4181183;28;20231;-75
2022/11/09 00:07:19;;;;;;;7.97;3.97;;;21.10;99.90;;;;;;4179803;28;20261;-75
2022/11/09 00:09:21;;;;;;;5.88;3.88;;;21.10;99.90;;;;;;4179460;28;20710;-75
2022/11/09 00:11:25;;;;;;;6.47;3.80;;;21.10;99.90;;;;;;4184997;28;20265;-74
2022/11/09 00:13:27;;;;;;;5.28;3.53;;;21.10;99.90;;;;;;4189763;28;20227;-74
2022/11/09 00:15:29;;;;;;;7.13;3.85;;;21.10;99.90;;;;;;4186762;28;20224;-74
2022/11/09 00:17:32;;;;;;;5.32;3.67;;;21.10;99.90;;;;;;4190786;28;20227;-74
2022/11/09 00:19:34;;;;;;;4.82;3.58;;;21.00;99.90;;;;;;4188989;28;20207;-74
2022/11/09 00:21:36;;;;;;;6.55;4.25;;;21.10;99.90;;;;;;4179946;28;20219;-75
2022/11/09 00:23:39;;;;;;;5.20;3.47;;;21.00;99.90;;;;;;4176230;28;20274;-74
2022/11/09 00:25:41;;;;;;;7.13;3.63;;;21.00;99.90;;;;;;4177764;28;20282;-75
2022/11/09 00:27:45;;;;;;;7.13;3.67;;;21.00;99.90;;;;;;4183608;28;20228;-75
2022/11/09 00:29:47;;;;;;;9.05;3.85;;;21.00;99.90;;;;;;4179791;28;20224;-75
2022/11/09 00:31:50;;;;;;;6.07;3.97;;;21.00;99.90;;;;;;4183685;28;20249;-75
2022/11/09 00:33:54;;;;;;;7.05;3.72;;;21.00;99.90;;;;;;4182232;28;20644;-75
2022/11/09 00:35:56;;;;;;;5.18;3.53;;;21.00;99.90;;;;;;4180550;28;20277;-75
2022/11/09 00:37:58;;;;;;;4.75;3.42;;;21.00;99.90;;;;;;4185282;28;20269;-76
2022/11/09 00:40:01;;;;;;;5.28;3.60;;;21.00;99.90;;;;;;4179218;28;20278;-75
2022/11/09 00:42:03;;;;;;;6.70;3.63;;;21.00;99.90;;;;;;4190633;28;20588;-75
2022/11/09 00:44:07;;;;;;;6.68;3.33;;;21.00;99.90;;;;;;4185695;28;20211;-75
2022/11/09 00:46:09;;;;;;;5.63;3.33;;;21.00;99.90;;;;;;4184757;28;20242;-75
2022/11/09 00:48:11;;;;;;;5.32;3.40;;;20.90;99.90;;;;;;4193440;28;20246;-75
2022/11/09 00:50:14;;;;;;;8.52;4.18;;;20.90;99.90;;;;;;4188002;28;20286;-75
2022/11/09 00:52:16;;;;;;;5.85;3.67;;;21.00;99.90;;;;;;4187367;28;20219;-74
2022/11/09 00:54:18;;;;;;;6.45;3.60;;;21.00;99.90;;;;;;4181729;28;20219;-75
2022/11/09 00:56:21;;;;;;;7.10;3.72;;;20.90;99.90;;;;;;4177171;28;20687;-75
2022/11/09 00:58:25;;;;;;;4.82;3.63;;;20.90;99.90;;;;;;4172684;28;20239;-75
2022/11/09 01:00:28;;;;;;;6.93;4.10;;;20.90;99.90;;;;;;4177088;28;20224;-75
2022/11/09 01:02:31;;;;;;;4.88;3.70;;;20.90;99.90;;;;;;4177035;28;20262;-75
2022/11/09 01:04:33;;;;;;;6.82;3.55;;;20.90;99.90;;;;;;4176544;28;20227;-76
2022/11/09 01:06:35;;;;;;;7.68;3.60;;;20.90;99.90;;;;;;4176727;28;20243;-76
2022/11/09 01:08:38;;;;;;;5.85;3.40;;;20.90;99.90;;;;;;4176610;28;20281;-75
2022/11/09 01:10:42;;;;;;;5.40;3.42;;;20.90;99.90;;;;;;4176658;28;20266;-75
2022/11/09 01:12:44;;;;;;;5.50;3.55;;;20.90;99.90;;;;;;4176853;28;20258;-75
2022/11/09 01:14:47;;;;;;;6.35;3.67;;;20.90;99.90;;;;;;4175984;28;20652;-75
2022/11/09 01:16:51;;;;;;;5.18;3.22;;;20.80;99.90;;;;;;4176935;28;20833;-75
2022/11/09 01:18:54;;;;;;;5.03;3.17;;;20.80;99.90;;;;;;4176583;28;20212;-75
2022/11/09 01:20:56;;;;;;;5.63;3.55;;;20.80;99.90;;;;;;4175127;28;20211;-75
2022/11/09 01:22:59;;;;;;;5.53;3.10;;;20.90;99.90;;;;;;4174895;28;20247;-76
2022/11/09 01:25:01;;;;;;;5.95;3.33;;;20.80;99.90;;;;;;4176551;28;20246;-76
2022/11/09 01:27:03;;;;;;;6.60;3.50;;;20.80;99.90;;;;;;4176835;28;20224;-75
2022/11/09 01:29:06;;;;;;;5.47;3.55;;;20.80;99.90;;;;;;4175876;28;20244;-76
2022/11/09 01:31:11;;;;;;;5.80;3.60;;;20.80;99.90;;;;;;4176551;28;20223;-75
2022/11/09 01:33:15;;;;;;;7.32;3.50;;;20.80;99.90;;;;;;4175652;28;20212;-75
2022/11/09 01:35:17;;;;;;;5.53;3.40;;;20.80;99.90;;;;;;4176873;28;21029;-75
2022/11/09 01:37:20;;;;;;;6.43;3.00;;;20.80;99.90;;;;;;4176879;28;20212;-76
2022/11/09 01:39:22;;;;;;;5.50;3.03;;;20.80;99.90;;;;;;4176640;28;20257;-75
2022/11/09 01:41:27;;;;;;;6.82;3.33;;;20.80;99.90;;;;;;4175644;28;20217;-75
2022/11/09 01:43:30;;;;;;;5.88;3.25;;;20.80;99.90;;;;;;4179471;28;20211;-75
2022/11/09 01:45:32;;;;;;;7.72;3.63;;;20.80;99.90;;;;;;4179445;28;20232;-75
2022/11/09 01:47:35;;;;;;;6.35;3.40;;;20.80;99.90;;;;;;4178938;28;20220;-72
2022/11/09 01:49:44;;;;;;;6.90;3.65;;;20.70;99.90;;;;;;4181885;28;20211;-72
2022/11/09 01:51:50;;;;;;;8.25;3.72;;;20.70;99.90;;;;;;4179701;28;20215;-72
2022/11/09 01:53:57;;;;;;;8.02;3.60;;;20.80;99.90;;;;;;4179456;28;20259;-72
2022/11/09 01:56:02;;;;;;;5.38;3.50;;;20.80;99.90;;;;;;4179372;28;20216;-72
2022/11/09 01:58:08;;;;;;;6.55;3.83;;;20.70;99.90;;;;;;4167917;28;20723;-72
2022/11/09 02:00:13;;;;;;;7.57;3.17;;;20.70;99.90;;;;;;4172288;28;20235;-71
2022/11/09 02:02:16;;;;;;;6.22;3.00;;;20.70;99.90;;;;;;4175532;28;20269;-71
2022/11/09 02:04:22;;;;;;;6.70;3.05;;;20.70;99.90;;;;;;4175926;28;20277;-71
2022/11/09 02:06:28;;;;;;;6.90;3.65;;;20.70;99.90;;;;;;4163252;28;20232;-71
2022/11/09 02:08:31;;;;;;;6.03;3.55;;;20.70;99.90;;;;;;4165276;28;20290;-71
2022/11/09 02:10:39;;;;;;;5.88;3.58;;;20.70;99.90;;;;;;4173588;28;20216;-71
2022/11/09 02:12:41;;;;;;;5.63;3.53;;;20.70;99.90;;;;;;4161868;28;20215;-71
2022/11/09 02:14:45;;;;;;;5.93;3.42;;;20.70;99.90;;;;;;4169173;28;20217;-71
2022/11/09 02:16:48;;;;;;;7.18;3.50;;;20.70;99.90;;;;;;4176637;28;20705;-71
2022/11/09 02:18:54;;;;;;;6.65;3.50;;;20.70;99.90;;;;;;4172380;28;20220;-71
2022/11/09 02:20:58;;;;;;;4.97;3.47;;;20.70;99.90;;;;;;4171269;28;20220;-71
2022/11/09 02:23:01;;;;;;;6.32;3.80;;;20.60;99.90;;;;;;4174169;28;20314;-71
2022/11/09 02:25:04;;;;;;;5.32;3.35;;;20.70;99.90;;;;;;4172142;28;20624;-71
2022/11/09 02:27:07;;;;;;;5.22;2.90;;;20.70;99.90;;;;;;4173628;28;20305;-71
2022/11/09 02:29:14;;;;;;;5.70;3.50;;;20.70;99.90;;;;;;4174991;28;20298;-71
2022/11/09 02:31:19;;;;;;;6.13;3.22;;;20.70;99.90;;;;;;4175691;28;20269;-71
2022/11/09 02:33:22;;;;;;;4.40;3.03;;;20.70;99.90;;;;;;4169019;28;20336;-71
2022/11/09 02:35:24;;;;;;;5.80;3.58;;;20.60;99.90;;;;;;4165250;28;20554;-71
2022/11/09 02:37:31;;;;;;;5.10;3.63;;;20.60;99.90;;;;;;4162508;28;20213;-71
2022/11/09 02:39:34;;;;;;;6.63;3.40;;;20.60;99.90;;;;;;4163818;28;20625;-71
2022/11/09 02:41:42;;;;;;;7.15;3.78;;;20.60;99.90;;;;;;4168054;28;20216;-71
2022/11/09 02:43:45;;;;;;;5.75;3.35;;;20.60;99.90;;;;;;4166156;28;20266;-71
2022/11/09 02:45:50;;;;;;;8.05;3.70;;;20.60;99.90;;;;;;4164491;28;20220;-71
2022/11/09 02:47:52;;;;;;;6.47;3.28;;;20.60;99.90;;;;;;4162359;28;20660;-71
2022/11/09 02:49:56;;;;;;;6.70;3.72;;;20.60;99.90;;;;;;4164291;28;20265;-71
2022/11/09 02:51:59;;;;;;;5.85;3.72;;;20.60;99.90;;;;;;4158984;28;20723;-71
2022/11/09 02:54:02;;;;;;;7.20;3.90;;;20.60;99.90;;;;;;4168238;28;20220;-71
2022/11/09 02:56:05;;;;;;;5.05;3.30;;;20.60;99.90;;;;;;4175000;28;20258;-71
2022/11/09 02:58:08;;;;;;;6.88;3.40;;;20.60;99.90;;;;;;4188063;28;20755;-71
2022/11/09 03:00:11;;;;;;;6.22;3.58;;;20.60;99.90;;;;;;4188149;28;20224;-71
2022/11/09 03:02:13;;;;;;;5.32;3.47;;;20.60;99.90;;;;;;4179385;28;20219;-71
2022/11/09 03:04:15;;;;;;;7.30;3.60;;;20.60;99.90;;;;;;4189132;28;20219;-71
2022/11/09 03:06:18;;;;;;;6.82;3.80;;;20.60;99.90;;;;;;4179721;28;20244;-71
2022/11/09 03:08:20;;;;;;;7.28;3.40;;;20.60;99.90;;;;;;4186360;28;20278;-71
2022/11/09 03:10:24;;;;;;;6.57;3.47;;;20.60;99.90;;;;;;4175263;28;20208;-71
2022/11/09 03:12:29;;;;;;;5.45;3.35;;;20.60;99.90;;;;;;4178432;28;20219;-71
2022/11/09 03:14:32;;;;;;;7.63;3.53;;;20.60;99.90;;;;;;4178026;28;20542;-71
2022/11/09 03:16:35;;;;;;;5.75;3.50;;;20.60;99.90;;;;;;4186827;28;20223;-71
2022/11/09 03:18:37;;;;;;;7.68;3.83;;;20.60;99.90;;;;;;4179699;28;20270;-71
2022/11/09 03:20:39;;;;;;;5.07;3.03;;;20.50;99.90;;;;;;4178605;28;20224;-71
2022/11/09 03:22:42;;;;;;;6.90;4.03;;;20.50;99.90;;;;;;4189783;28;20211;-71
2022/11/09 03:24:44;;;;;;;5.75;3.67;;;20.60;99.90;;;;;;4178628;28;20207;-71
2022/11/09 03:26:48;;;;;;;5.45;3.58;;;20.50;99.90;;;;;;4177520;28;20274;-71
2022/11/09 03:28:50;;;;;;;6.65;3.92;;;20.50;99.90;;;;;;4179923;28;20278;-71
2022/11/09 03:30:55;;;;;;;5.93;3.20;;;20.50;99.90;;;;;;4188885;28;20219;-71
2022/11/09 03:32:59;;;;;;;6.47;3.83;;;20.50;99.90;;;;;;4176135;28;20257;-72
2022/11/09 03:35:01;;;;;;;6.20;3.58;;;20.50;99.90;;;;;;4177752;28;20212;-72
2022/11/09 03:37:03;;;;;;;7.53;3.83;;;20.50;99.90;;;;;;4181456;28;20728;-72
2022/11/09 03:39:06;;;;;;;7.28;3.70;;;20.50;99.90;;;;;;4178081;28;20263;-72
2022/11/09 03:41:08;;;;;;;6.07;3.22;;;20.50;99.90;;;;;;4178176;28;20212;-72
2022/11/09 03:43:12;;;;;;;5.97;3.30;;;20.50;99.90;;;;;;4185686;28;20224;-72
2022/11/09 03:45:15;;;;;;;5.53;3.20;;;20.50;99.90;;;;;;4177960;28;20224;-71
2022/11/09 03:47:17;;;;;;;6.60;3.28;;;20.50;99.90;;;;;;4180666;28;20648;-71
2022/11/09 03:49:22;;;;;;;5.10;3.08;;;20.50;99.90;;;;;;4178041;28;20286;-71
2022/11/09 03:51:24;;;;;;;5.22;3.45;;;20.50;99.90;;;;;;4178126;28;20215;-71
2022/11/09 03:53:27;;;;;;;7.20;3.45;;;20.50;99.90;;;;;;4178335;28;20259;-71
2022/11/09 03:55:29;;;;;;;5.05;3.60;;;20.50;99.90;;;;;;4180849;28;20340;-71
2022/11/09 03:57:32;;;;;;;6.28;3.10;;;20.50;99.90;;;;;;4176321;28;20754;-71
2022/11/09 03:59:43;;;;;;;6.40;3.10;;;20.50;99.90;;;;;;4177585;28;20291;-71
2022/11/09 04:01:45;;;;;;;8.40;3.58;;;20.50;99.90;;;;;;4177234;28;20293;-71
2022/11/09 04:03:47;;;;;;;6.03;3.10;;;20.50;99.90;;;;;;4176984;28;20221;-71
2022/11/09 04:05:49;;;;;;;7.60;3.47;;;20.50;99.90;;;;;;4177363;28;20224;-71
2022/11/09 04:07:56;;;;;;;6.93;3.13;;;20.40;99.90;;;;;;4177665;28;20741;-71
2022/11/09 04:09:59;;;;;;;6.22;3.08;;;20.40;99.90;;;;;;4177049;28;20216;-71
2022/11/09 04:12:01;;;;;;;5.20;3.28;;;20.40;99.90;;;;;;4172831;28;20220;-71
2022/11/09 04:14:03;;;;;;;6.43;3.60;;;20.40;99.90;;;;;;4175659;28;20305;-71
2022/11/09 04:16:07;;;;;;;6.43;3.20;;;20.40;99.90;;;;;;4177562;28;20227;-71
2022/11/09 04:18:13;;;;;;;5.55;3.25;;;20.40;99.90;;;;;;4175433;28;20338;-71
2022/11/09 04:20:15;;;;;;;4.93;3.20;;;20.40;99.90;;;;;;4176692;28;20298;-71
2022/11/09 04:22:17;;;;;;;5.85;3.03;;;20.40;99.90;;;;;;4176973;28;20528;-71
2022/11/09 04:24:20;;;;;;;5.65;2.95;;;20.40;99.90;;;;;;4177416;28;20244;-71
2022/11/09 04:26:22;;;;;;;5.28;3.10;;;20.50;99.90;;;;;;4177155;28;20232;-71
2022/11/09 04:28:24;;;;;;;5.82;3.30;;;20.40;99.90;;;;;;4177444;28;20219;-71
2022/11/09 04:30:28;;;;;;;4.75;3.00;;;20.40;99.90;;;;;;4175683;28;20207;-71
2022/11/09 04:32:32;;;;;;;5.57;3.22;;;20.40;99.90;;;;;;4176997;28;20684;-72
2022/11/09 04:34:34;;;;;;;5.60;3.30;;;20.40;99.90;;;;;;4176684;28;20227;-71
2022/11/09 04:36:37;;;;;;;6.80;3.35;;;20.40;99.90;;;;;;4176871;28;20219;-71
2022/11/09 04:38:39;;;;;;;6.90;3.20;;;20.40;99.90;;;;;;4177088;28;20274;-71
2022/11/09 04:40:41;;;;;;;6.47;3.33;;;20.30;99.90;;;;;;4177119;28;20227;-71
2022/11/09 04:42:44;;;;;;;7.03;2.88;;;20.30;99.90;;;;;;4176337;28;20581;-71
2022/11/09 04:44:46;;;;;;;5.85;3.28;;;20.30;99.90;;;;;;4177039;28;20277;-71
2022/11/09 04:46:48;;;;;;;6.45;3.20;;;20.40;99.90;;;;;;4174835;28;20262;-71
2022/11/09 04:48:52;;;;;;;5.90;3.15;;;20.40;99.90;;;;;;4177179;28;20224;-71
2022/11/09 04:51:00;;;;;;;7.45;3.25;;;20.40;99.90;;;;;;4176946;28;20224;-71
2022/11/09 04:53:10;;;;;;;5.55;3.20;;;20.40;99.90;;;;;;4177071;28;20219;-71
2022/11/09 04:55:12;;;;;;;5.75;2.95;;;20.30;99.90;;;;;;4176879;28;20220;-71
2022/11/09 04:57:14;;;;;;;5.20;3.10;;;20.30;99.90;;;;;;4176624;28;20232;-71
2022/11/09 04:59:17;;;;;;;5.88;3.08;;;20.30;99.90;;;;;;4173701;28;20212;-71
2022/11/09 05:01:19;;;;;;;8.90;3.90;;;20.30;99.90;;;;;;4190431;28;20219;-71
2022/11/09 05:03:21;;;;;;;6.22;3.42;;;20.30;99.90;;;;;;4185159;28;20653;-71
2022/11/09 05:05:25;;;;;;;8.73;3.53;;;20.30;99.90;;;;;;4188011;28;20223;-70
2022/11/09 05:07:27;;;;;;;3.92;2.50;;;20.30;99.90;;;;;;4187674;28;20235;-71
2022/11/09 05:09:31;;;;;;;7.18;3.40;;;20.40;99.90;;;;;;4188405;28;20227;-71
2022/11/09 05:11:35;;;;;;;6.03;2.90;;;20.30;99.90;;;;;;4183450;28;20219;-71
2022/11/09 05:13:37;;;;;;;6.15;3.08;;;20.30;99.90;;;;;;4188340;28;20215;-71
2022/11/09 05:15:40;;;;;;;5.80;3.33;;;20.30;99.90;;;;;;4186860;28;20229;-71
2022/11/09 05:17:43;;;;;;;6.13;2.92;;;20.30;99.90;;;;;;4186018;28;20211;-71
2022/11/09 05:19:45;;;;;;;7.32;3.45;;;20.30;99.90;;;;;;4187557;28;20223;-70
2022/11/09 05:21:49;;;;;;;6.65;3.20;;;20.30;99.90;;;;;;4185106;28;20632;-71
2022/11/09 05:23:59;;;;;;;5.55;3.03;;;20.30;99.90;;;;;;4188185;28;20258;-71
2022/11/09 05:26:02;;;;;;;7.03;3.08;;;20.30;99.90;;;;;;4186606;28;20226;-71
2022/11/09 05:28:04;;;;;;;6.38;3.05;;;20.30;99.90;;;;;;4186925;28;20644;-71
2022/11/09 05:30:08;;;;;;;5.70;3.03;;;20.30;99.90;;;;;;4181959;28;20235;-72
2022/11/09 05:32:10;;;;;;;5.68;3.10;;;20.30;99.90;;;;;;4191463;28;20266;-71
2022/11/09 05:34:13;;;;;;;9.02;3.47;;;20.30;99.90;;;;;;4191740;28;20215;-71
2022/11/09 05:36:15;;;;;;;8.93;3.17;;;20.30;99.90;;;;;;4191332;28;20232;-71
2022/11/09 05:38:19;;;;;;;6.43;3.30;;;20.30;99.90;;;;;;4185197;28;20607;-71
2022/11/09 05:40:21;;;;;;;6.38;3.00;;;20.30;99.90;;;;;;4178753;28;20564;-71
2022/11/09 05:42:24;;;;;;;6.65;3.38;;;20.20;99.90;;;;;;4187162;28;20239;-71
2022/11/09 05:44:26;;;;;;;5.38;3.03;;;20.20;99.90;;;;;;4189424;28;20215;-71
2022/11/09 05:46:30;;;;;;;6.57;2.97;;;20.20;99.90;;;;;;4183063;28;20251;-70
2022/11/09 05:48:32;;;;;;;4.72;3.17;;;20.20;99.90;;;;;;4191049;28;20293;-71
2022/11/09 05:50:35;;;;;;;5.05;2.83;;;20.20;99.90;;;;;;4179658;28;20581;-71
2022/11/09 05:52:37;;;;;;;4.63;2.50;;;20.20;99.90;;;;;;4191150;28;20276;-71
2022/11/09 05:54:41;;;;;;;5.97;2.67;;;20.20;99.90;;;;;;4182666;28;20278;-71
2022/11/09 05:56:43;;;;;;;5.80;3.10;;;20.10;99.90;;;;;;4192306;28;20216;-72
2022/11/09 05:58:46;;;;;;;6.28;2.83;;;20.10;99.90;;;;;;4190282;28;20270;-71
2022/11/09 06:00:48;;;;;;;5.88;2.83;;;20.20;99.90;;;;;;4192370;28;20244;-71
2022/11/09 06:02:50;;;;;;;5.10;2.90;;;20.20;99.90;;;;;;4186247;28;20269;-71
2022/11/09 06:04:53;;;;;;;5.32;2.90;;;20.20;99.90;;;;;;4190143;28;20220;-71
2022/11/09 06:06:55;;;;;;;6.28;3.10;;;20.20;99.90;;;;;;4184197;28;20211;-71
2022/11/09 06:08:57;;;;;;;5.93;2.80;;;20.20;99.90;;;;;;4184093;28;20251;-71
2022/11/09 06:11:04;;;;;;;6.20;2.88;;;20.20;99.90;;;;;;4190358;28;20212;-71
2022/11/09 06:13:07;;;;;;;5.13;2.92;;;20.20;99.90;;;;;;4185986;28;20269;-71
2022/11/09 06:15:10;;;;;;;4.63;2.35;;;20.30;99.90;;;;;;4187041;28;20219;-71
2022/11/09 06:17:12;;;;;;;6.05;2.75;;;20.30;99.90;;;;;;4181362;28;20710;-71
2022/11/09 06:19:14;;;;;;;5.10;2.60;;;20.30;99.90;;;;;;4185045;28;20216;-71
2022/11/09 06:21:17;;;;;;;5.97;2.75;;;20.30;99.90;;;;;;4185381;28;20215;-71
2022/11/09 06:23:24;;;;;;;4.55;2.78;;;20.30;99.90;;;;;;4188924;28;20281;-75
2022/11/09 06:25:26;;;;;;;5.95;2.63;;;20.30;99.90;;;;;;4181992;28;20233;-75
2022/11/09 06:27:30;;;;;;;6.95;2.85;;;20.30;99.90;;;;;;4184412;28;20215;-75
2022/11/09 06:29:32;;;;;;;5.97;3.05;;;20.30;99.90;;;;;;4193292;28;20223;-75
2022/11/09 06:31:35;;;;;;;5.13;2.95;;;20.30;99.90;;;;;;4185759;28;20211;-75
2022/11/09 06:33:37;;;;;;;7.15;2.65;;;20.40;99.90;;;;;;4182936;28;20262;-75
2022/11/09 06:35:39;;;;;;;5.55;2.67;;;20.40;99.90;;;;;;4183811;28;20224;-74
2022/11/09 06:37:44;;;;;;;5.45;2.42;;;20.40;99.90;;;;;;4178702;28;20731;-75
2022/11/09 06:39:47;;;;;;;4.57;2.53;;;20.40;99.90;;;;;;4181066;28;20224;-75
2022/11/09 06:41:49;;;;;;;4.55;2.67;;;20.40;99.90;;;;;;4192046;28;20940;-74
2022/11/09 06:43:53;;;;;;;5.05;2.60;;;20.40;99.90;;;;;;4182193;28;20227;-75
2022/11/09 06:45:55;;;;;;;5.75;2.88;;;20.50;99.90;;;;;;4176560;28;20280;-75
2022/11/09 06:47:59;;;;;;;5.70;2.50;;;20.40;99.90;;;;;;4183732;28;20266;-75
2022/11/09 06:50:01;;;;;;;5.97;2.60;;;20.50;99.90;;;;;;4181378;28;20651;-75
2022/11/09 06:52:04;;;;;;;5.57;2.53;;;20.50;99.90;;;;;;4178927;28;20635;-75
2022/11/09 06:54:06;;;;;;;5.68;2.40;;;20.50;99.90;;;;;;4191462;28;20285;-75
2022/11/09 06:56:10;;;;;;;4.20;2.25;;;20.60;99.90;;;;;;4188141;28;20702;-75
2022/11/09 06:58:15;;;;;;;5.85;2.60;;;20.50;99.90;;;;;;4182662;28;20615;-75
2022/11/09 07:00:20;;;;;;;4.57;2.40;;;20.50;99.90;;;;;;4179266;28;20247;-75
2022/11/09 07:02:22;;;;;;;6.20;2.60;;;20.60;99.90;;;;;;4188534;28;20282;-75
2022/11/09 07:04:25;;;;;;;6.13;2.50;;;20.60;99.90;;;;;;4186630;28;20278;-75
2022/11/09 07:06:27;;;;;;;9.43;2.60;;;20.60;99.90;;;;;;4181573;28;20261;-75
2022/11/09 07:08:29;;;;;;;7.43;3.00;;;20.60;99.90;;;;;;4193624;28;20250;-75
2022/11/09 07:10:31;;;;;;;7.97;2.33;;;20.70;99.90;;;;;;4188694;28;20247;-76
2022/11/09 07:12:34;;;;;;;5.95;2.85;;;20.70;99.90;;;;;;4190443;28;20269;-76
2022/11/09 07:14:38;;;;;;;12.63;3.17;;;20.70;99.90;;;;;;4184826;28;20212;-75
2022/11/09 07:16:42;;;;;;;7.10;2.95;;;20.70;99.90;;;;;;4182130;28;20625;-75
2022/11/09 07:18:45;;;;;;;4.53;2.40;;;20.70;99.90;;;;;;4188061;28;20262;-76
2022/11/09 07:20:47;;;;;;;4.32;2.30;;;20.70;99.90;;;;;;4189502;28;20306;-76
2022/11/09 07:22:49;;;;;;;7.25;3.00;;;20.70;99.90;;;;;;4184315;28;20224;-76
2022/11/09 07:24:52;;;;;;;5.18;2.17;;;20.70;99.90;;;;;;4184311;28;20347;-76
2022/11/09 07:26:54;;;;;;;4.43;2.20;;;20.80;99.90;;;;;;4179861;28;20615;-75
2022/11/09 07:28:56;;;;;;;6.32;2.55;;;20.80;99.90;;;;;;4191724;28;20285;-76
2022/11/09 07:30:59;;;;;;;3.95;2.15;;;20.80;99.90;;;;;;4188598;28;20602;-75
2022/11/09 07:33:03;;;;;;;6.40;2.42;;;20.80;99.90;;;;;;4179405;28;20663;-76
2022/11/09 07:35:07;;;;;;;8.07;2.72;;;20.80;99.90;;;;;;4192233;28;20222;-76
2022/11/09 07:37:09;;;;;;;5.03;2.17;;;20.80;99.90;;;;;;4178870;28;20695;-76
2022/11/09 07:39:11;;;;;;;4.55;1.90;;;20.80;99.90;;;;;;4187581;28;20608;-76
2022/11/09 07:41:14;;;;;;;4.65;2.22;;;20.80;99.90;;;;;;4181558;28;20219;-76
2022/11/09 07:43:17;;;;;;;5.75;2.35;;;20.90;99.90;;;;;;4175035;28;20630;-76
2022/11/09 07:45:19;;;;;;;4.05;1.95;;;20.90;99.90;;;;;;4181044;28;20220;-76
2022/11/09 07:47:21;;;;;;;6.30;2.80;;;20.80;99.90;;;;;;4191836;28;20269;-76
2022/11/09 07:49:25;;;;;;;4.97;2.35;;;20.90;99.90;;;;;;4182633;28;20651;-75
2022/11/09 07:51:27;;;;;;;5.32;2.58;;;20.90;99.90;;;;;;4178507;28;20274;-75
2022/11/09 07:53:30;;;;;;;5.18;2.20;;;20.90;99.90;;;;;;4186141;28;20280;-77
2022/11/09 07:55:33;;;;;;;6.70;2.65;;;20.80;99.90;;;;;;4178071;28;20715;-78
2022/11/09 07:57:35;;;;;;;7.43;2.15;;;20.90;99.90;;;;;;4178622;28;20243;-76
2022/11/09 07:59:38;;;;;;;6.60;2.55;;;21.00;99.90;;;;;;4167309;28;20216;-76
2022/11/09 08:01:40;;;;;;;9.02;2.20;;;20.90;99.90;;;;;;4169590;28;20211;-76
2022/11/09 08:03:43;;;;;;;8.40;2.33;;;21.00;99.90;;;;;;4175204;28;20267;-76
2022/11/09 08:05:47;;;;;;;6.05;2.40;;;21.00;99.90;;;;;;4172618;28;20246;-77
2022/11/09 08:07:53;;;;;;;4.38;2.08;;;21.10;99.90;;;;;;4174595;28;20711;-77
2022/11/09 08:09:56;;;;;;;10.43;2.80;;;21.20;99.90;;;;;;4173324;28;20340;-77
2022/11/09 08:11:58;;;;;;;5.88;2.58;;;21.10;99.90;;;;;;4170811;28;20289;-77
2022/11/09 08:14:00;;;;;;;7.80;2.90;;;21.10;99.90;;;;;;4173447;28;20215;-78
2022/11/09 08:16:03;;;;;;;5.60;2.35;;;21.20;99.90;;;;;;4173085;28;20274;-77
2022/11/09 08:18:08;;;;;;;5.65;2.65;;;21.20;99.90;;;;;;4172099;28;20270;-77
2022/11/09 08:20:11;;;;;;;6.28;2.33;;;21.20;99.90;;;;;;4171748;28;20671;-77
2022/11/09 08:22:14;;;;;;;4.15;2.25;;;21.30;99.90;;;;;;4170648;28;20235;-76
2022/11/09 08:24:17;;;;;;;6.05;2.35;;;21.30;99.90;;;;;;4172052;28;20215;-77
2022/11/09 08:26:19;;;;;;;6.38;2.55;;;21.30;99.90;;;;;;4171569;28;20626;-79
2022/11/09 08:28:22;;;;;;;7.18;2.38;;;21.40;99.90;;;;;;4169184;28;20270;-79
2022/11/09 08:30:26;;;;;;;5.00;2.25;;;21.30;99.90;;;;;;4170934;28;20236;-76
2022/11/09 08:32:29;;;;;;;9.20;2.80;;;21.40;99.90;;;;;;4169412;28;20215;-78
2022/11/09 08:34:31;;;;;;;8.80;2.28;;;21.40;99.90;;;;;;4172455;28;20212;-76
2022/11/09 08:36:35;;;;;;;8.57;2.00;;;21.40;99.90;;;;;;4170945;28;20219;-78
2022/11/09 08:38:38;;;;;;;7.35;2.80;;;21.40;99.90;;;;;;4172488;28;20262;-75
2022/11/09 08:40:41;;;;;;;10.18;2.40;;;21.40;99.90;;;;;;4173948;28;20215;-76
2022/11/09 08:42:43;;;;;;;6.88;2.25;;;21.40;99.90;;;;;;4173438;28;20277;-76
2022/11/09 08:44:46;;;;;;;5.80;2.47;;;21.50;99.90;;;;;;4174827;28;20636;-77
2022/11/09 08:46:48;;;;;;;9.10;2.45;;;21.50;99.90;;;;;;4168727;28;20270;-76
2022/11/09 08:48:50;;;;;;;6.18;2.03;;;21.50;99.90;;;;;;4175084;28;20223;-76
2022/11/09 08:50:54;;;;;;;6.03;2.08;;;21.50;99.90;;;;;;4175182;28;20266;-75
2022/11/09 08:52:57;;;;;;;4.85;2.08;;;21.50;99.90;;;;;;4169893;28;20224;-77
2022/11/09 08:55:01;;;;;;;4.47;2.00;;;21.50;99.90;;;;;;4171970;28;20223;-76
2022/11/09 08:57:03;;;;;;;7.05;2.40;;;21.50;99.90;;;;;;4172564;28;20270;-76
2022/11/09 08:59:07;;;;;;;7.40;2.30;;;21.60;99.90;;;;;;4166950;28;20338;-79
2022/11/09 09:01:10;;;;;;;5.38;1.90;;;21.60;99.90;;;;;;4170399;28;20718;-78
2022/11/09 09:03:13;;;;;;;10.20;2.25;;;21.60;99.90;;;;;;4172032;28;20265;-77
2022/11/09 09:05:15;;;;;;;7.28;2.78;;;21.70;99.90;;;;;;4170457;28;20208;-77
2022/11/09 09:07:17;;;;;;;7.93;2.25;;;21.70;99.90;;;;;;4169987;28;20223;-77
2022/11/09 09:09:20;;;;;;;7.07;2.00;;;21.70;99.90;;;;;;4170514;28;20244;-80
2022/11/09 09:11:26;;;;;;;5.97;2.38;;;21.60;99.90;;;;;;4172071;28;20223;-77
2022/11/09 09:13:29;;;;;;;5.65;2.30;;;21.70;99.90;;;;;;4168756;28;20220;-77
2022/11/09 09:15:31;;;;;;;4.32;2.17;;;21.70;99.90;;;;;;4170014;28;20215;-79
2022/11/09 09:17:34;;;;;;;5.40;2.13;;;21.70;99.90;;;;;;4171139;28;20219;-78
2022/11/09 09:19:37;;;;;;;5.15;2.25;;;21.70;99.90;;;;;;4170647;28;20213;-79
2022/11/09 09:21:39;;;;;;;6.47;2.05;;;21.70;99.90;;;;;;4165812;28;20213;-76
2022/11/09 09:23:41;;;;;;;9.48;2.10;;;21.80;99.90;;;;;;4172370;28;20207;-78
2022/11/09 09:25:44;;;;;;;3.38;1.92;;;21.80;99.90;;;;;;4168951;28;20269;-77
2022/11/09 09:27:47;;;;;;;10.07;2.60;;;21.90;99.90;;;;;;4170151;28;20747;-77
2022/11/09 09:29:50;;;;;;;8.93;2.50;;;21.90;99.90;;;;;;4171143;28;20247;-77
2022/11/09 09:31:52;;;;;;;5.45;2.13;;;21.90;99.90;;;;;;4169568;28;20664;-79
2022/11/09 09:33:54;;;;;;;5.63;2.35;;;21.90;99.90;;;;;;4168592;28;20211;-76
2022/11/09 09:35:57;;;;;;;13.85;2.95;;;21.90;99.90;;;;;;4162442;28;20675;-79
2022/11/09 09:37:59;;;;;;;5.13;2.28;;;21.90;99.90;;;;;;4168462;28;21645;-78
2022/11/09 09:40:02;;;;;;;7.20;2.20;;;21.80;99.90;;;;;;4164724;28;20207;-78
2022/11/09 09:42:07;;;;;;;6.28;1.92;;;21.90;99.90;;;;;;4170835;28;20703;-79
2022/11/09 09:44:22;;;;;;;6.00;2.00;;;21.90;99.90;;;;;;4169165;28;20212;-79
2022/11/09 09:46:32;;;;;;;6.05;2.30;;;21.90;99.90;;;;;;4169982;28;20243;-80
2022/11/09 09:48:43;;;;;;;6.60;2.38;;;22.00;99.90;;;;;;4168467;28;20220;-77
2022/11/09 09:50:48;;;;;;;5.15;1.77;;;22.00;99.90;;;;;;4170404;28;20244;-78
2022/11/09 09:52:57;;;;;;;4.40;2.00;;;22.00;99.90;;;;;;4169259;28;20637;-78
2022/11/09 09:55:04;;;;;;;4.65;2.35;;;22.00;99.90;;;;;;4170758;28;20212;-77
2022/11/09 09:57:16;;;;;;;5.18;1.98;;;22.10;99.90;;;;;;4170211;28;20248;-78
2022/11/09 09:59:27;;;;;;;5.72;2.30;;;22.10;99.90;;;;;;4152733;28;20212;-78
2022/11/09 10:01:36;;;;;;;6.07;2.08;;;22.10;99.90;;;;;;4158978;28;20225;-79
2022/11/09 10:03:39;;;;;;;9.18;2.33;;;22.10;99.90;;;;;;4164944;28;20217;-76
2022/11/09 10:05:49;;;;;;;6.10;2.17;;;22.10;99.90;;;;;;4156727;28;20216;-78
2022/11/09 10:08:02;;;;;;;7.68;2.22;;;22.20;99.90;;;;;;4157992;28;20270;-78
2022/11/09 10:10:22;;;;;;;4.00;1.88;;;22.20;99.90;;;;;;4163170;28;20323;-78
2022/11/09 10:12:35;;;;;;;6.80;2.17;;;22.20;99.90;;;;;;4158191;28;20625;-78
2022/11/09 10:15:03;;;;;;;8.60;2.10;;;22.30;99.90;;;;;;4164256;28;20329;-76
2022/11/09 10:17:14;;;;;;;6.60;2.17;;;22.20;99.90;;;;;;4157974;28;20220;-76
2022/11/09 10:19:39;;;;;;;7.22;2.25;;;22.20;99.90;;;;;;4157647;28;20950;-79
2022/11/09 10:21:48;;;;;;;12.10;2.25;;;22.20;99.90;;;;;;4160223;28;20220;-78
2022/11/09 10:24:06;;;;;;;9.40;2.30;;;22.40;99.90;;;;;;4163104;28;20266;-77
2022/11/09 10:26:17;;;;;;;6.70;1.80;;;22.40;99.90;;;;;;4162611;28;20216;-84
2022/11/09 10:28:25;;;;;;;9.70;2.15;;;22.50;99.90;;;;;;4158177;28;20220;-78
2022/11/09 10:30:30;;;;;;;5.95;1.80;;;22.60;99.90;;;;;;4156118;28;20294;-73
2022/11/09 10:32:32;;;;;;;5.40;1.88;;;22.50;99.90;;;;;;4157376;28;20282;-75
2022/11/09 10:34:42;;;;;;;6.28;1.70;;;22.50;99.90;;;;;;4162377;28;20225;-75
2022/11/09 10:36:48;;;;;;;7.85;2.03;;;22.50;99.90;;;;;;4161177;28;20220;-75
2022/11/09 10:38:53;;;;;;;5.75;1.80;;;22.50;99.90;;;;;;4157589;28;20224;-77
2022/11/09 10:41:01;;;;;;;6.75;2.20;;;22.50;99.90;;;;;;4160059;28;20216;-74
2022/11/09 10:43:09;;;;;;;3.35;1.80;;;22.40;99.90;;;;;;4157714;28;20297;-76